Currie, Texas
Current Conditions -  °F | °C
As of 1:15 PM on Thursday 23 Oct 2014 (Local Time) from KLXY Reporting Station
Clear Clear  
Wind Chill: 72°   Ceiling: Unl
Heat Index: 72°   Visibility: 10mi
Dew Point: 56°   Wind: 5mph
Humidity: 57%   Direction: 160°SSE
Pressure: 30.14"   Gusts: NA
Location:  31.7923°N, 96.3714°W
Report Text: KLXY 231815Z AUTO 16004KT 10SM CLR 22/14 A3014 RMK AO2 T02240136
Loading
Personal Weather Stations






























Interactive Weather Map
Tropical Storm Tracking
New forecast layout! Learn more

10-Day Weather Forecast

Advertisements
Track Severe Weather on mobile